General Aviation Weather

Text Reports

Enter one or more of the following location identifiers separated by a space:

Zip Code, Four-Character ICAO or Three-Character IATA airport codes.

METAR - Aviation Routine Weather Report
KSWO - Stillwater, Oklahoma
Updated at 4:01 AM GMT on July 31, 2014 (11:01 PM CDT):
SPECI KSWO 310401Z AUTO 03008KT 10SM BKN007 OVC020 21/19 A3006 RMK AO2 CIG 005V009
TAF - Terminal Area Forecast
KSWO - Stillwater, Oklahoma
Updated at 4:01 AM GMT on July 31, 2014 (11:01 PM CDT):
No TAF is currently available for this location.
Decoded:
No decoded TAF is available.
PIREP - Pilot Weather Report
KSWO - Stillwater, Oklahoma
Updated at 4:01 AM GMT on July 31, 2014 (11:01 PM CDT):
No PIREP is currently available for this location.
AIRMET - Airmens Meteorological Information
KSWO - Stillwater, Oklahoma
Updated at 4:01 AM GMT on July 31, 2014 (11:01 PM CDT):
No AIRMET is currently available for this location.
SIGMET - Significant Meteorological Information
KSWO - Stillwater, Oklahoma
Updated at 4:01 AM GMT on July 31, 2014 (11:01 PM CDT):
No SIGMET is currently available for this location.
NOTAM - Notice to Airmen
KSWO - Stillwater, Oklahoma
Updated at 4:01 AM GMT on July 31, 2014 (11:01 PM CDT):
No NOTAM is currently available for this location.
Forecast Area
KSWO - Stillwater, Oklahoma
Updated at 4:01 AM GMT on July 31, 2014 (11:01 PM CDT):
No NOTAM is currently available for this location.
Aviation Weather Maps